Terminal Aerodrome Forecast
Issued by NWS

Home | Current Version | Previous Version | Text Only | Print | Product List | Glossary On
Versions: 1 2 3 4 5 6 7 8 9 10 11 12 13 14 15 16 17 18 19 20 21 22 23 24 25
000
FTUS45 KSLC 251720
TAFSGU
TAF
KSGU 251720Z 2518/2618 23007KT P6SM FEW110 SCT200
     FM252000 25011G19KT P6SM SCT110 BKN200
     FM260100 26010KT P6SM FEW120 BKN200
     FM260400 VRB06KT P6SM SCT200
      AMD LTD TO CLD VIS AND WIND=

USA.gov is the U.S. government's official web portal to all federal, state and local government web resources and services.